Map

Track Data

SID SEASON NUMBER BASIN SUBBASIN NAME ISO_TIME NATURE LAT LON WMO_WIND WMO_PRES WMO_AGENCY TRACK_TYPE DIST2LAND LANDFALL IFLAG USA_AGENCY USA_ATCF_ID USA_LAT USA_LON USA_RECORD USA_STATUS USA_WIND USA_PRES USA_SSHS USA_R34_NE USA_R34_SE USA_R34_SW USA_R34_NW USA_R50_NE USA_R50_SE USA_R50_SW USA_R50_NW USA_R64_NE USA_R64_SE USA_R64_SW USA_R64_NW USA_POCI USA_ROCI USA_RMW USA_EYE TOKYO_LAT TOKYO_LON TOKYO_GRADE TOKYO_WIND TOKYO_PRES TOKYO_R50_DIR TOKYO_R50_LONG TOKYO_R50_SHORT TOKYO_R30_DIR TOKYO_R30_LONG TOKYO_R30_SHORT TOKYO_LAND CMA_LAT CMA_LON CMA_CAT CMA_WIND CMA_PRES HKO_LAT HKO_LON HKO_CAT HKO_WIND HKO_PRES NEWDELHI_LAT NEWDELHI_LON NEWDELHI_GRADE NEWDELHI_WIND NEWDELHI_PRES NEWDELHI_CI NEWDELHI_DP NEWDELHI_POCI REUNION_LAT REUNION_LON REUNION_TYPE REUNION_WIND REUNION_PRES REUNION_TNUM REUNION_CI REUNION_RMW REUNION_R34_NE REUNION_R34_SE REUNION_R34_SW REUNION_R34_NW REUNION_R50_NE REUNION_R50_SE REUNION_R50_SW REUNION_R50_NW REUNION_R64_NE REUNION_R64_SE REUNION_R64_SW REUNION_R64_NW BOM_LAT BOM_LON BOM_TYPE BOM_WIND BOM_PRES BOM_TNUM BOM_CI BOM_RMW BOM_R34_NE BOM_R34_SE BOM_R34_SW BOM_R34_NW BOM_R50_NE BOM_R50_SE BOM_R50_SW BOM_R50_NW BOM_R64_NE BOM_R64_SE BOM_R64_SW BOM_R64_NW BOM_ROCI BOM_POCI BOM_EYE BOM_POS_METHOD BOM_PRES_METHOD NADI_LAT NADI_LON NADI_CAT NADI_WIND NADI_PRES WELLINGTON_LAT WELLINGTON_LON WELLINGTON_WIND WELLINGTON_PRES DS824_LAT DS824_LON DS824_STAGE DS824_WIND DS824_PRES TD9636_LAT TD9636_LON TD9636_STAGE TD9636_WIND TD9636_PRES TD9635_LAT TD9635_LON TD9635_WIND TD9635_PRES TD9635_ROCI NEUMANN_LAT NEUMANN_LON NEUMANN_CLASS NEUMANN_WIND NEUMANN_PRES MLC_LAT MLC_LON MLC_CLASS MLC_WIND MLC_PRES USA_GUST BOM_GUST BOM_GUST_PER REUNION_GUST REUNION_GUST_PER USA_SEAHGT USA_SEARAD_NE USA_SEARAD_SE USA_SEARAD_SW USA_SEARAD_NW STORM_SPEED STORM_DIR
1908251N20139 1908 36 WP MM NOT_NAMED 1908-09-06 16:00:00 NR 19.5000 138.500 main 1503 1493 __________O___ -1 19.5000 138.500 7 5 278
1908251N20139 1908 36 WP MM NOT_NAMED 1908-09-06 18:00:00 NR 19.5234 138.328 main 1493 1473 __________P___ -1 19.5234 138.328 7 5 278
1908251N20139 1908 36 WP MM NOT_NAMED 1908-09-06 21:00:00 NR 19.5621 138.052 main 1473 1453 __________P___ -1 19.5621 138.052 7 6 279
1908251N20139 1908 36 WP MM NOT_NAMED 1908-09-07 00:00:00 NR 19.6105 137.734 main 1453 1424 __________P___ -1 19.6105 137.734 7 7 280
1908251N20139 1908 36 WP MM NOT_NAMED 1908-09-07 03:00:00 NR 19.6743 137.348 main 1424 1420 __________P___ -1 19.6743 137.348 7 8 280
1908251N20139 1908 36 WP MM NOT_NAMED 1908-09-07 04:00:00 NR 19.7000 137.200 main 1420 1396 __________O___ -1 19.7000 137.200 7 9 281
1908251N20139 1908 36 WP MM NOT_NAMED 1908-09-07 06:00:00 NR 19.7588 136.872 main 1396 1360 __________P___ -1 19.7588 136.872 7 10 281
1908251N20139 1908 36 WP MM NOT_NAMED 1908-09-07 09:00:00 NR 19.8656 136.322 main 1360 1326 __________P___ -1 19.8656 136.322 7 11 283
1908251N20139 1908 36 WP MM NOT_NAMED 1908-09-07 12:00:00 NR 19.9942 135.743 main 1326 1298 __________P___ -1 19.9942 135.743 7 11 285
1908251N20139 1908 36 WP MM NOT_NAMED 1908-09-07 15:00:00 NR 20.1448 135.178 main 1298 1280 __________P___ -1 20.1448 135.178 7 11 286
1908251N20139 1908 36 WP MM NOT_NAMED 1908-09-07 16:00:00 NR 20.2000 135.000 main 1280 1260 __________O___ -1 20.2000 135.000 7 10 289
1908251N20139 1908 36 WP MM NOT_NAMED 1908-09-07 18:00:00 NR 20.3106 134.672 main 1260 1223 __________P___ -1 20.3106 134.672 7 10 292
1908251N20139 1908 36 WP MM NOT_NAMED 1908-09-07 21:00:00 NR 20.4957 134.212 main 1223 1191 __________P___ -1 20.4957 134.212 7 9 295
1908251N20139 1908 36 WP MM NOT_NAMED 1908-09-08 00:00:00 NR 20.7009 133.792 main 1191 1159 __________P___ -1 20.7009 133.792 7 9 300
1908251N20139 1908 36 WP MM NOT_NAMED 1908-09-08 03:00:00 NR 20.9229 133.415 main 1159 1146 __________P___ -1 20.9229 133.415 7 8 303
1908251N20139 1908 36 WP MM NOT_NAMED 1908-09-08 04:00:00 NR 21.0000 133.300 main 1146 1131 __________O___ -1 21.0000 133.300 7 7 299
1908251N20139 1908 36 WP MM NOT_NAMED 1908-09-08 06:00:00 NR 21.0999 133.076 main 1131 1103 __________P___ -1 21.0999 133.076 7 7 298
1908251N20139 1908 36 WP MM NOT_NAMED 1908-09-08 09:00:00 NR 21.2614 132.779 main 1103 1076 __________P___ -1 21.2614 132.779 7 7 307
1908251N20139 1908 36 WP MM NOT_NAMED 1908-09-08 12:00:00 NR 21.4896 132.516 main 1076 1039 __________P___ -1 21.4896 132.516 7 7 321
1908251N20139 1908 36 WP MM NOT_NAMED 1908-09-08 15:00:00 NR 21.8437 132.277 main 1039 1016 __________P___ -1 21.8437 132.277 7 9 330
1908251N20139 1908 36 WP MM NOT_NAMED 1908-09-08 16:00:00 NR 22.0000 132.200 main 1016 969 __________O___ -1 22.0000 132.200 3 13 336
1908251N20139 1908 36 WP MM NOT_NAMED 1908-09-08 18:00:00 NR 22.4440 131.991 main 969 876 __________P___ -1 22.4440 131.991 3 16 339
1908251N20139 1908 36 WP MM NOT_NAMED 1908-09-08 21:00:00 NR 23.2435 131.688 main 876 773 __________P___ -1 23.2435 131.688 3 17 343
1908251N20139 1908 36 WP MM NOT_NAMED 1908-09-09 00:00:00 NR 24.0949 131.443 main 773 683 __________P___ -1 24.0949 131.443 3 17 348
1908251N20139 1908 36 WP MM NOT_NAMED 1908-09-09 03:00:00 NR 24.8762 131.310 main 683 661 __________P___ -1 24.8762 131.310 3 15 353
1908251N20139 1908 36 WP MM NOT_NAMED 1908-09-09 04:00:00 NR 25.1000 131.300 main 661 627 __________O___ -1 25.1000 131.300 4 11 4
1908251N20139 1908 36 WP MM NOT_NAMED 1908-09-09 06:00:00 NR 25.4245 131.351 main 628 585 __________P___ -1 25.4245 131.351 4 9 18
1908251N20139 1908 36 WP MM NOT_NAMED 1908-09-09 09:00:00 NR 25.7981 131.550 main 585 557 __________P___ -1 25.7981 131.550 4 8 34
1908251N20139 1908 36 WP MM NOT_NAMED 1908-09-09 12:00:00 NR 26.0802 131.846 main 557 542 __________P___ -1 26.0802 131.846 4 8 48
1908251N20139 1908 36 WP MM NOT_NAMED 1908-09-09 15:00:00 NR 26.3205 132.186 main 544 533 __________P___ -1 26.3205 132.186 4 8 52
1908251N20139 1908 36 WP MM NOT_NAMED 1908-09-09 16:00:00 NR 26.4000 132.300 main 536 521 __________O___ -1 26.4000 132.300 4 8 44
1908251N20139 1908 36 WP MM NOT_NAMED 1908-09-09 18:00:00 NR 26.5972 132.484 main 521 501 __________P___ -1 26.5972 132.484 4 8 41
1908251N20139 1908 36 WP MM NOT_NAMED 1908-09-09 21:00:00 NR 26.8806 132.771 main 501 483 __________P___ -1 26.8806 132.771 4 8 43
1908251N20139 1908 36 WP MM NOT_NAMED 1908-09-10 00:00:00 NR 27.1518 133.074 main 483 474 __________P___ -1 27.1518 133.074 4 8 46
1908251N20139 1908 36 WP MM NOT_NAMED 1908-09-10 03:00:00 NR 27.4140 133.391 main 479 470 __________P___ -1 27.4140 133.391 4 8 47
1908251N20139 1908 36 WP MM NOT_NAMED 1908-09-10 04:00:00 NR 27.5000 133.500 main 475 468 __________O___ -1 27.5000 133.500 4 8 48
1908251N20139 1908 36 WP MM NOT_NAMED 1908-09-10 06:00:00 NR 27.6775 133.722 main 468 463 __________P___ -1 27.6775 133.722 4 8 49
1908251N20139 1908 36 WP MM NOT_NAMED 1908-09-10 09:00:00 NR 27.9377 134.068 main 469 456 __________P___ -1 27.9377 134.068 4 8 50
1908251N20139 1908 36 WP MM NOT_NAMED 1908-09-10 12:00:00 NR 28.1878 134.423 main 459 456 __________P___ -1 28.1878 134.423 4 8 52
1908251N20139 1908 36 WP MM NOT_NAMED 1908-09-10 15:00:00 NR 28.4245 134.781 main 468 460 __________P___ -1 28.4245 134.781 4 8 53
1908251N20139 1908 36 WP MM NOT_NAMED 1908-09-10 16:00:00 NR 28.5000 134.900 main 466 466 __________O___ -1 28.5000 134.900 4 8 55
1908251N20139 1908 36 WP MM NOT_NAMED 1908-09-10 18:00:00 NR 28.6454 135.136 main 473 473 __________P___ -1 28.6454 135.136 4 8 56
1908251N20139 1908 36 WP MM NOT_NAMED 1908-09-10 21:00:00 NR 28.8518 135.488 main 482 482 __________P___ -1 28.8518 135.488 4 7 57
1908251N20139 1908 36 WP MM NOT_NAMED 1908-09-11 00:00:00 NR 29.0478 135.836 main 490 468 __________P___ -1 29.0478 135.836 4 7 58
1908251N20139 1908 36 WP MM NOT_NAMED 1908-09-11 03:00:00 NR 29.2375 136.184 main 470 458 __________P___ -1 29.2375 136.184 4 7 58
1908251N20139 1908 36 WP MM NOT_NAMED 1908-09-11 04:00:00 NR 29.3000 136.300 main 459 __________O___ -1 29.3000 136.300 4 7 58

Digital Typhoon Data and Search

About IBTrACS Database

This database is a web-friendly format of International Best Track Archive for Climate Stewardship (IBTrACS), a global best track data archive curated by NOAA dating back to 1842.

Updated: 2021-11-26